Time;durP1;ratioP1;P1;durP2;ratioP2;P2;SDS_P1;SDS_P2;PMS_P1;PMS_P2;Temp;Humidity;BMP_temperature;BMP_pressure;BME280_temperature;BME280_humidity;BME280_pressure;Samples;Min_cycle;Max_cycle;Signal;HPM_P1;HPM_P2
2022/10/18 00:01:05;;;;;;;28.80;4.43;;;17.10;99.90;;;;;;4961855;28;21036;-66
2022/10/18 00:03:31;;;;;;;38.00;4.22;;;17.00;99.90;;;;;;4953416;28;20047;-67
2022/10/18 00:05:57;;;;;;;39.65;5.05;;;15.10;99.90;;;;;;4953108;29;20497;-67
2022/10/18 00:08:24;;;;;;;46.63;4.75;;;14.90;99.90;;;;;;4940320;28;20034;-67
2022/10/18 00:10:50;;;;;;;27.75;4.65;;;16.70;99.90;;;;;;4952548;29;20035;-67
2022/10/18 00:13:15;;;;;;;39.13;4.68;;;16.80;99.90;;;;;;4954503;28;20054;-66
2022/10/18 00:15:53;;;;;;;33.45;4.43;;;15.00;99.90;;;;;;4955681;28;20420;-66
2022/10/18 00:18:19;;;;;;;33.15;4.85;;;16.50;99.90;;;;;;4939844;28;20409;-66
2022/10/18 00:20:45;;;;;;;38.47;4.80;;;16.10;99.90;;;;;;4951831;29;20051;-67
2022/10/18 00:23:10;;;;;;;33.50;4.85;;;15.40;99.90;;;;;;4952413;29;20480;-66
2022/10/18 00:25:36;;;;;;;29.50;4.85;;;16.20;99.90;;;;;;4953475;28;20027;-67
2022/10/18 00:28:01;;;;;;;32.10;4.45;;;17.00;99.90;;;;;;4934115;28;20156;-66
2022/10/18 00:30:27;;;;;;;37.67;4.32;;;17.00;99.90;;;;;;4953826;28;20078;-67
2022/10/18 00:32:52;;;;;;;34.45;4.50;;;16.50;99.90;;;;;;4954203;28;20030;-67
2022/10/18 00:35:18;;;;;;;33.83;4.80;;;16.90;99.90;;;;;;4971951;28;20117;-67
2022/10/18 00:37:43;;;;;;;31.83;3.78;;;17.30;99.90;;;;;;4956415;28;20054;-66
2022/10/18 00:40:09;;;;;;;29.85;3.67;;;17.40;99.90;;;;;;4955019;28;20042;-66
2022/10/18 00:42:36;;;;;;;35.70;4.60;;;15.80;99.90;;;;;;4952440;28;20035;-66
2022/10/18 00:45:14;;;;;;;31.35;3.78;;;15.70;99.90;;;;;;4939275;28;20216;-67
2022/10/18 00:47:41;;;;;;;31.02;4.07;;;16.30;99.90;;;;;;4941457;29;20042;-66
2022/10/18 00:50:07;;;;;;;30.85;4.25;;;15.20;99.90;;;;;;4955173;28;20098;-66
2022/10/18 00:52:40;;;;;;;31.67;3.90;;;15.20;99.90;;;;;;4952132;29;20058;-66
2022/10/18 00:55:07;;;;;;;29.58;3.80;;;17.40;99.90;;;;;;4952617;28;20543;-66
2022/10/18 00:57:33;;;;;;;29.23;4.40;;;17.50;99.90;;;;;;4937905;29;20043;-66
2022/10/18 01:00:00;;;;;;;30.30;4.82;;;17.40;99.90;;;;;;4938649;28;20038;-66
2022/10/18 01:02:26;;;;;;;28.63;4.40;;;17.00;99.90;;;;;;4955287;28;20041;-67
2022/10/18 01:04:52;;;;;;;32.10;4.00;;;15.70;99.90;;;;;;4947092;28;20132;-67
2022/10/18 01:07:24;;;;;;;30.92;3.75;;;15.30;99.90;;;;;;4952359;29;20078;-67
2022/10/18 01:10:20;;;;;;;26.35;4.35;;;15.90;99.90;;;;;;4952788;29;20039;-66
2022/10/18 01:13:09;;;;;;;28.45;4.32;;;15.30;99.90;;;;;;4938785;28;20110;-67
2022/10/18 01:15:58;;;;;;;23.90;4.07;;;16.10;99.90;;;;;;4969098;28;20129;-66
2022/10/18 01:18:42;;;;;;;27.60;3.55;;;16.40;99.90;;;;;;4935960;29;20059;-66
2022/10/18 01:21:40;;;;;;;29.05;3.70;;;16.60;99.90;;;;;;4953778;28;20474;-66
2022/10/18 01:24:26;;;;;;;40.75;3.90;;;17.00;99.90;;;;;;4954101;28;20042;-66
2022/10/18 01:27:21;;;;;;;38.80;5.50;;;16.50;99.90;;;;;;4967126;28;20496;-67
2022/10/18 01:30:20;;;;;;;25.00;3.47;;;16.70;99.90;;;;;;4955555;28;20059;-66
2022/10/18 01:32:50;;;;;;;25.70;3.92;;;17.50;99.90;;;;;;4951050;28;20067;-67
2022/10/18 01:35:21;;;;;;;29.77;4.50;;;16.10;99.90;;;;;;4952555;28;20074;-67
2022/10/18 01:37:48;;;;;;;32.53;6.05;;;16.90;99.90;;;;;;4950679;29;20461;-67
2022/10/18 01:40:18;;;;;;;30.35;4.22;;;15.80;99.90;;;;;;4951611;29;20511;-67
2022/10/18 01:42:47;;;;;;;39.60;4.38;;;16.90;99.90;;;;;;4953869;28;20085;-67
2022/10/18 01:45:14;;;;;;;32.90;3.63;;;17.30;99.90;;;;;;4938733;28;20109;-67
2022/10/18 01:47:43;;;;;;;26.98;3.80;;;15.70;99.90;;;;;;4955396;28;20051;-67
2022/10/18 01:50:08;;;;;;;39.25;4.22;;;15.00;99.90;;;;;;4950768;28;20051;-67
2022/10/18 01:52:34;;;;;;;26.85;3.67;;;16.90;99.90;;;;;;4950319;28;20065;-66
2022/10/18 01:55:02;;;;;;;29.77;3.90;;;15.50;99.90;;;;;;4954355;28;20481;-67
2022/10/18 01:57:33;;;;;;;38.10;4.00;;;16.40;99.90;;;;;;4951980;28;20102;-66
2022/10/18 02:00:22;;;;;;;24.35;3.97;;;16.90;99.90;;;;;;4969191;28;20051;-66
2022/10/18 02:02:48;;;;;;;25.60;3.20;;;15.10;99.90;;;;;;4953595;28;20070;-67
2022/10/18 02:05:13;;;;;;;30.77;3.55;;;15.70;99.90;;;;;;4951134;29;20078;-66
2022/10/18 02:07:50;;;;;;;19.50;3.08;;;16.80;99.90;;;;;;4938309;28;20538;-67
2022/10/18 02:10:51;;;;;;;33.58;3.78;;;15.40;99.90;;;;;;4928655;29;20039;-67
2022/10/18 02:13:20;;;;;;;25.38;4.07;;;15.20;99.90;;;;;;4966029;28;20053;-66
2022/10/18 02:15:49;;;;;;;25.73;3.53;;;16.20;99.90;;;;;;4953344;28;20047;-67
2022/10/18 02:18:19;;;;;;;30.83;3.70;;;14.90;99.90;;;;;;4952677;28;20521;-66
2022/10/18 02:20:47;;;;;;;25.23;3.78;;;16.20;99.90;;;;;;4954123;28;20102;-67
2022/10/18 02:23:14;;;;;;;19.95;3.35;;;15.00;99.90;;;;;;4953940;28;20089;-66
2022/10/18 02:25:40;;;;;;;19.27;3.65;;;14.60;99.90;;;;;;4954099;28;20054;-67
2022/10/18 02:28:06;;;;;;;25.50;3.72;;;16.70;99.90;;;;;;4950614;29;20047;-66
2022/10/18 02:30:38;;;;;;;27.98;5.07;;;14.90;99.90;;;;;;4951046;29;20036;-66
2022/10/18 02:33:12;;;;;;;19.52;3.30;;;16.10;99.90;;;;;;4951249;28;20086;-66
2022/10/18 02:35:46;;;;;;;15.90;3.15;;;15.30;99.90;;;;;;4949334;29;20501;-67
2022/10/18 02:38:14;;;;;;;30.00;3.88;;;14.60;99.90;;;;;;4954029;28;20130;-66
2022/10/18 02:40:39;;;;;;;20.92;3.10;;;15.00;99.90;;;;;;4954557;28;20082;-66
2022/10/18 02:43:05;;;;;;;32.10;3.65;;;16.10;99.90;;;;;;4950361;29;20100;-67
2022/10/18 02:45:32;;;;;;;26.70;2.85;;;16.40;99.90;;;;;;4937943;28;20501;-67
2022/10/18 02:47:57;;;;;;;17.13;3.30;;;16.50;99.90;;;;;;4953390;28;20493;-66
2022/10/18 02:50:23;;;;;;;21.77;2.90;;;14.90;99.90;;;;;;4953051;28;20038;-67
2022/10/18 02:52:49;;;;;;;21.58;3.20;;;16.00;99.90;;;;;;4937800;28;20039;-66
2022/10/18 02:55:15;;;;;;;20.55;3.10;;;15.40;99.90;;;;;;4953304;28;20628;-66
2022/10/18 02:57:41;;;;;;;20.55;3.00;;;16.10;99.90;;;;;;4950035;28;20055;-67
2022/10/18 03:00:07;;;;;;;25.00;3.58;;;16.40;99.90;;;;;;4955645;28;20054;-67
2022/10/18 03:02:32;;;;;;;17.23;3.88;;;16.20;99.90;;;;;;4956132;28;20052;-66
2022/10/18 03:04:58;;;;;;;24.42;3.70;;;16.60;99.90;;;;;;4956427;28;20400;-66
2022/10/18 03:07:24;;;;;;;18.85;2.92;;;15.00;99.90;;;;;;4941359;28;20041;-66
2022/10/18 03:09:49;;;;;;;22.10;3.05;;;16.50;99.90;;;;;;4954320;28;20070;-67
2022/10/18 03:12:15;;;;;;;26.13;3.53;;;15.90;99.90;;;;;;4951883;28;20039;-67
2022/10/18 03:14:41;;;;;;;19.10;2.88;;;16.50;99.90;;;;;;4954058;29;20374;-66
2022/10/18 03:17:07;;;;;;;20.42;3.08;;;15.80;99.90;;;;;;4953436;29;20046;-66
2022/10/18 03:19:32;;;;;;;16.60;3.10;;;14.90;99.90;;;;;;4957383;28;20042;-67
2022/10/18 03:21:58;;;;;;;18.55;3.72;;;15.50;99.90;;;;;;4939366;28;20035;-67
2022/10/18 03:24:23;;;;;;;19.77;3.20;;;14.70;99.90;;;;;;4936966;29;20454;-66
2022/10/18 03:26:49;;;;;;;19.65;3.00;;;15.10;99.90;;;;;;4951163;29;20039;-67
2022/10/18 03:29:14;;;;;;;26.13;3.50;;;15.70;99.90;;;;;;4954206;29;20039;-67
2022/10/18 03:31:40;;;;;;;25.90;3.30;;;17.50;99.90;;;;;;4951746;29;20035;-67
2022/10/18 03:34:06;;;;;;;24.48;3.13;;;14.60;99.90;;;;;;4955931;28;20038;-66
2022/10/18 03:36:32;;;;;;;20.45;3.47;;;14.40;99.90;;;;;;4953968;28;20035;-67
2022/10/18 03:38:58;;;;;;;16.40;3.13;;;15.70;99.90;;;;;;4940995;28;20570;-66
2022/10/18 03:41:24;;;;;;;25.50;3.83;;;16.10;99.90;;;;;;4955243;28;20135;-66
2022/10/18 03:43:49;;;;;;;18.67;2.88;;;15.60;99.90;;;;;;4953558;28;20528;-66
2022/10/18 03:46:15;;;;;;;18.10;3.65;;;14.50;99.90;;;;;;4955008;28;20094;-66
2022/10/18 03:48:40;;;;;;;23.08;3.35;;;14.80;99.90;;;;;;4941193;28;20489;-66
2022/10/18 03:51:06;;;;;;;20.65;2.75;;;15.10;99.90;;;;;;4953563;29;20043;-67
2022/10/18 03:53:32;;;;;;;25.50;3.35;;;14.30;99.90;;;;;;4956209;28;20082;-67
2022/10/18 03:55:57;;;;;;;18.35;2.92;;;14.50;99.90;;;;;;4954258;28;20043;-67
2022/10/18 03:58:23;;;;;;;18.30;3.20;;;14.60;99.90;;;;;;4953566;29;20450;-67
2022/10/18 04:00:53;;;;;;;18.27;2.78;;;15.60;99.90;;;;;;4954932;28;20065;-66
2022/10/18 04:03:20;;;;;;;23.63;3.55;;;15.40;99.90;;;;;;4942674;29;20130;-66
2022/10/18 04:05:47;;;;;;;20.50;2.95;;;15.70;99.90;;;;;;4953944;28;20098;-66
2022/10/18 04:08:13;;;;;;;13.93;2.60;;;14.30;99.90;;;;;;4952899;29;20047;-67
2022/10/18 04:10:39;;;;;;;12.85;2.65;;;14.20;99.90;;;;;;4953612;28;20483;-66
2022/10/18 04:13:05;;;;;;;16.08;2.67;;;14.10;99.90;;;;;;4953319;29;20171;-66
2022/10/18 04:15:31;;;;;;;13.90;2.60;;;14.00;99.90;;;;;;4953658;28;20500;-66
2022/10/18 04:17:57;;;;;;;13.45;2.33;;;14.40;99.90;;;;;;4943633;28;20113;-66
2022/10/18 04:20:23;;;;;;;13.25;2.50;;;14.00;99.90;;;;;;4948427;28;20101;-67
2022/10/18 04:22:49;;;;;;;17.10;2.80;;;13.90;99.90;;;;;;4946099;28;20565;-66
2022/10/18 04:25:16;;;;;;;20.52;2.75;;;13.80;99.90;;;;;;4956458;28;20050;-66
2022/10/18 04:27:41;;;;;;;25.23;3.42;;;14.90;99.90;;;;;;4955990;28;20401;-66
2022/10/18 04:30:07;;;;;;;20.27;2.97;;;15.00;99.90;;;;;;4927530;29;20155;-66
2022/10/18 04:32:34;;;;;;;11.02;1.98;;;14.50;99.90;;;;;;4946376;28;20094;-66
2022/10/18 04:35:01;;;;;;;10.73;2.35;;;13.50;99.90;;;;;;4955777;28;20042;-66
2022/10/18 04:37:26;;;;;;;13.75;2.17;;;13.60;99.90;;;;;;4956017;28;20421;-66
2022/10/18 04:39:52;;;;;;;15.98;2.70;;;13.20;99.90;;;;;;4940866;28;20059;-66
2022/10/18 04:42:18;;;;;;;125.10;4.63;;;14.30;99.90;;;;;;4956502;28;20045;-66
2022/10/18 04:44:43;;;;;;;79.28;3.10;;;13.00;99.90;;;;;;4956084;28;20440;-66
2022/10/18 04:47:09;;;;;;;93.80;4.45;;;12.90;99.90;;;;;;4956264;28;20039;-66
2022/10/18 04:49:34;;;;;;;208.52;5.28;;;13.60;99.90;;;;;;4956248;28;20043;-66
2022/10/18 04:52:00;;;;;;;82.47;2.85;;;12.10;99.90;;;;;;4955695;28;20063;-66
2022/10/18 04:54:25;;;;;;;57.90;3.63;;;12.30;99.90;;;;;;4956287;28;20038;-66
2022/10/18 04:56:51;;;;;;;464.92;9.32;;;12.20;99.90;;;;;;4955866;28;20038;-66
2022/10/18 04:59:16;;;;;;;498.13;12.85;;;12.10;99.90;;;;;;4956031;28;20408;-66
2022/10/18 05:01:42;;;;;;;536.22;13.07;;;12.00;99.90;;;;;;4956207;28;20468;-66
2022/10/18 05:04:08;;;;;;;673.97;18.10;;;12.20;99.90;;;;;;4955712;28;20053;-66
2022/10/18 05:06:34;;;;;;;567.78;15.45;;;11.80;99.90;;;;;;4955771;28;20038;-66
2022/10/18 05:08:59;;;;;;;305.42;7.70;;;13.00;99.90;;;;;;4945483;29;20079;-66
2022/10/18 05:11:25;;;;;;;360.52;9.93;;;13.50;99.90;;;;;;4936989;29;20035;-66
2022/10/18 05:13:51;;;;;;;907.35;22.38;;;12.60;99.90;;;;;;4940399;28;20046;-66
2022/10/18 05:16:17;;;;;;;574.70;15.70;;;13.50;99.90;;;;;;4955615;28;20050;-66
2022/10/18 05:18:42;;;;;;;498.77;11.00;;;13.30;99.90;;;;;;4955628;28;20061;-66
2022/10/18 05:21:08;;;;;;;477.55;12.70;;;13.00;99.90;;;;;;4955570;28;20042;-66
2022/10/18 05:23:33;;;;;;;572.97;13.48;;;13.10;99.90;;;;;;4954950;28;20393;-66
2022/10/18 05:26:06;;;;;;;181.77;4.18;;;11.70;99.90;;;;;;4954867;28;20505;-66
2022/10/18 05:28:33;;;;;;;75.22;2.63;;;11.60;99.90;;;;;;4955104;28;20030;-66
2022/10/18 05:31:06;;;;;;;218.98;5.55;;;12.40;99.90;;;;;;4955302;28;20035;-66
2022/10/18 05:33:32;;;;;;;201.48;4.95;;;13.10;99.90;;;;;;4955184;28;20047;-66
2022/10/18 05:35:57;;;;;;;314.77;7.80;;;11.60;99.90;;;;;;4954578;28;20045;-66
2022/10/18 05:38:24;;;;;;;384.13;10.90;;;12.90;99.90;;;;;;4954183;28;20089;-66
2022/10/18 05:40:49;;;;;;;299.63;7.28;;;12.40;99.90;;;;;;4955428;28;20035;-65
2022/10/18 05:43:16;;;;;;;727.60;16.67;;;12.50;99.90;;;;;;4951979;29;20497;-66
2022/10/18 05:45:47;;;;;;;1138.15;26.67;;;11.10;99.90;;;;;;4953661;28;20101;-66
2022/10/18 05:48:13;;;;;;;1107.28;29.00;;;11.50;99.90;;;;;;4955495;28;20452;-66
2022/10/18 05:50:38;;;;;;;401.25;12.32;;;11.00;99.90;;;;;;4938496;28;20042;-65
2022/10/18 05:53:04;;;;;;;688.78;19.05;;;11.00;99.90;;;;;;4955214;28;20402;-66
2022/10/18 05:55:29;;;;;;;529.00;13.68;;;12.50;99.90;;;;;;4938388;28;20412;-66
2022/10/18 05:57:55;;;;;;;553.63;16.08;;;12.60;99.90;;;;;;4954778;28;20062;-66
2022/10/18 06:00:20;;;;;;;663.75;19.00;;;11.50;99.90;;;;;;4955066;28;20480;-66
2022/10/18 06:02:46;;;;;;;377.00;11.13;;;11.30;99.90;;;;;;4970029;28;20478;-66
2022/10/18 06:05:11;;;;;;;374.17;9.77;;;11.40;99.90;;;;;;4954813;28;20292;-65
2022/10/18 06:07:37;;;;;;;193.20;5.15;;;11.30;99.90;;;;;;4939033;28;20046;-66
2022/10/18 06:10:03;;;;;;;103.80;4.10;;;11.70;99.90;;;;;;4955303;28;20046;-67
2022/10/18 06:12:28;;;;;;;37.50;2.17;;;11.10;99.90;;;;;;4955088;28;20050;-66
2022/10/18 06:14:54;;;;;;;420.15;10.88;;;11.20;99.90;;;;;;4949681;28;20047;-66
2022/10/18 06:17:19;;;;;;;236.27;7.15;;;12.60;99.90;;;;;;4953044;28;20061;-66
2022/10/18 06:19:45;;;;;;;17.33;1.27;;;12.80;99.90;;;;;;4953307;28;20074;-66
2022/10/18 06:22:11;;;;;;;6.60;1.80;;;12.00;99.90;;;;;;4969964;28;20409;-65
2022/10/18 06:24:37;;;;;;;342.92;10.85;;;11.50;99.90;;;;;;4954765;28;20039;-66
2022/10/18 06:27:07;;;;;;;114.63;3.90;;;11.40;99.90;;;;;;4949867;28;20046;-66
2022/10/18 06:29:34;;;;;;;15.50;2.03;;;11.50;99.90;;;;;;4954245;28;20062;-66
2022/10/18 06:32:00;;;;;;;16.45;2.30;;;12.10;99.90;;;;;;4951862;28;20501;-66
2022/10/18 06:34:25;;;;;;;41.72;3.17;;;12.30;99.90;;;;;;4938878;28;20042;-65
2022/10/18 06:36:51;;;;;;;24.40;2.60;;;12.00;99.90;;;;;;4954590;28;20038;-66
2022/10/18 06:39:16;;;;;;;71.22;3.05;;;11.40;99.90;;;;;;4951282;28;20507;-66
2022/10/18 06:41:42;;;;;;;111.45;3.50;;;12.80;99.90;;;;;;4951431;29;20477;-66
2022/10/18 06:44:13;;;;;;;249.85;8.63;;;12.90;99.90;;;;;;4957071;28;20497;-66
2022/10/18 06:46:42;;;;;;;65.95;2.08;;;11.20;99.90;;;;;;4954951;28;20054;-66
2022/10/18 06:49:08;;;;;;;123.38;3.58;;;12.00;99.90;;;;;;4951752;28;20594;-66
2022/10/18 06:51:34;;;;;;;2.45;1.00;;;12.00;99.90;;;;;;4955077;28;20039;-65
2022/10/18 06:53:59;;;;;;;11.98;1.48;;;12.30;99.90;;;;;;4969607;28;20035;-65
2022/10/18 06:56:25;;;;;;;8.38;1.35;;;12.40;99.90;;;;;;4973934;28;20078;-65
2022/10/18 06:58:50;;;;;;;12.27;2.10;;;11.20;99.90;;;;;;4957819;28;20496;-65
2022/10/18 07:01:17;;;;;;;19.48;2.85;;;11.90;99.90;;;;;;4958047;28;20130;-65
2022/10/18 07:03:44;;;;;;;9.95;1.98;;;11.90;99.90;;;;;;4974993;28;20508;-65
2022/10/18 07:06:10;;;;;;;8.73;2.05;;;11.30;99.90;;;;;;4957746;28;20074;-65
2022/10/18 07:08:36;;;;;;;22.23;3.20;;;11.40;99.90;;;;;;4957851;28;20427;-65
2022/10/18 07:11:02;;;;;;;26.63;5.00;;;11.80;99.90;;;;;;4957763;28;20039;-65
2022/10/18 07:13:32;;;;;;;14.80;3.35;;;11.90;99.90;;;;;;4974943;28;20111;-65
2022/10/18 07:16:10;;;;;;;20.20;4.15;;;13.20;99.90;;;;;;4954776;28;20049;-66
2022/10/18 07:18:38;;;;;;;23.98;3.80;;;12.30;99.90;;;;;;4950480;28;21725;-67
2022/10/18 07:21:06;;;;;;;37.03;4.20;;;14.00;99.90;;;;;;4938457;28;20535;-65
2022/10/18 07:23:37;;;;;;;25.13;4.07;;;14.20;99.90;;;;;;4971090;28;20054;-66
2022/10/18 07:26:10;;;;;;;24.52;3.85;;;14.20;99.90;;;;;;4951046;28;20038;-66
2022/10/18 07:28:36;;;;;;;19.02;4.03;;;14.60;99.90;;;;;;4948680;28;20049;-66
2022/10/18 07:31:07;;;;;;;25.20;3.33;;;14.70;99.90;;;;;;4945968;28;20519;-66
2022/10/18 07:33:33;;;;;;;29.15;3.80;;;14.60;99.90;;;;;;4951981;28;20096;-66
2022/10/18 07:36:04;;;;;;;21.92;3.35;;;13.10;99.90;;;;;;4948649;28;20035;-66
2022/10/18 07:38:30;;;;;;;22.38;3.47;;;14.90;99.90;;;;;;4945969;28;20043;-66
2022/10/18 07:41:00;;;;;;;19.27;3.35;;;13.30;99.90;;;;;;4952576;28;20062;-66
2022/10/18 07:43:26;;;;;;;22.23;3.33;;;14.80;99.90;;;;;;4950874;28;20066;-66
2022/10/18 07:45:57;;;;;;;24.98;3.67;;;14.80;99.90;;;;;;4950465;28;20035;-66
2022/10/18 07:48:24;;;;;;;18.60;2.85;;;15.20;99.90;;;;;;4952712;28;20043;-66
2022/10/18 07:50:49;;;;;;;27.77;3.55;;;15.00;99.90;;;;;;4952510;28;20048;-67
2022/10/18 07:53:15;;;;;;;18.55;3.35;;;14.40;99.90;;;;;;4947044;28;20069;-67
2022/10/18 07:55:40;;;;;;;19.20;2.75;;;16.10;99.90;;;;;;4939727;28;20039;-67
2022/10/18 07:58:06;;;;;;;20.83;3.00;;;16.00;99.90;;;;;;4953115;28;20180;-66
2022/10/18 08:00:32;;;;;;;16.40;2.72;;;15.50;99.90;;;;;;4955165;28;20073;-66
2022/10/18 08:02:58;;;;;;;23.70;3.22;;;16.00;99.90;;;;;;4937029;28;20038;-66
2022/10/18 08:05:25;;;;;;;20.30;3.17;;;15.30;99.90;;;;;;4947229;28;20162;-66
2022/10/18 08:07:52;;;;;;;27.88;3.08;;;15.40;99.90;;;;;;4954016;28;20090;-67
2022/10/18 08:10:18;;;;;;;20.13;2.95;;;15.10;99.90;;;;;;4946611;28;20082;-66
2022/10/18 08:12:44;;;;;;;15.82;3.00;;;15.10;99.90;;;;;;4952843;28;20049;-66
2022/10/18 08:15:10;;;;;;;25.20;3.45;;;15.60;99.90;;;;;;4953263;28;20073;-67
2022/10/18 08:17:36;;;;;;;19.55;2.85;;;16.50;99.90;;;;;;4956058;28;20101;-66
2022/10/18 08:20:03;;;;;;;17.17;3.65;;;16.40;99.90;;;;;;4936586;28;20035;-66
2022/10/18 08:22:28;;;;;;;20.52;2.67;;;16.50;99.90;;;;;;4956022;28;20508;-66
2022/10/18 08:24:54;;;;;;;12.25;2.58;;;15.80;99.90;;;;;;4939742;28;20038;-66
2022/10/18 08:27:20;;;;;;;14.65;2.70;;;16.40;99.90;;;;;;4953029;28;20035;-67
2022/10/18 08:29:45;;;;;;;25.20;2.90;;;16.80;99.90;;;;;;4953371;28;20043;-67
2022/10/18 08:32:12;;;;;;;17.58;2.78;;;16.00;99.90;;;;;;4935314;29;20122;-67
2022/10/18 08:34:37;;;;;;;21.33;2.80;;;15.80;99.90;;;;;;4933423;28;20039;-66
2022/10/18 08:37:03;;;;;;;18.65;2.92;;;15.90;99.90;;;;;;4953678;28;20044;-68
2022/10/18 08:39:28;;;;;;;26.95;2.78;;;16.10;99.90;;;;;;4954416;28;20048;-67
2022/10/18 08:42:03;;;;;;;20.15;3.28;;;16.80;99.90;;;;;;4953101;28;20070;-67
2022/10/18 08:44:32;;;;;;;17.40;2.70;;;16.20;99.90;;;;;;4953301;28;20042;-67
2022/10/18 08:47:10;;;;;;;23.20;3.17;;;16.90;99.90;;;;;;4951817;28;20501;-67
2022/10/18 08:49:44;;;;;;;17.27;2.67;;;17.10;99.90;;;;;;4955105;28;20635;-67
2022/10/18 08:52:33;;;;;;;17.00;2.90;;;16.50;99.90;;;;;;4954981;28;20456;-67
2022/10/18 08:55:23;;;;;;;22.08;2.97;;;16.90;99.90;;;;;;4949536;28;20045;-67
2022/10/18 08:57:50;;;;;;;14.88;2.85;;;16.60;99.90;;;;;;4950882;28;20121;-67
2022/10/18 09:00:19;;;;;;;17.83;2.67;;;16.60;99.90;;;;;;4949948;28;20066;-68
2022/10/18 09:03:24;;;;;;;24.60;3.95;;;16.60;99.90;;;;;;4954031;28;20082;-67
2022/10/18 09:06:26;;;;;;;17.52;2.72;;;16.50;99.90;;;;;;4951020;28;20046;-67
2022/10/18 09:09:07;;;;;;;15.50;2.45;;;16.60;99.90;;;;;;4946456;28;20027;-67
2022/10/18 09:11:49;;;;;;;17.85;3.15;;;16.70;99.90;;;;;;4955605;28;20085;-67
2022/10/18 09:15:00;;;;;;;18.52;2.88;;;17.30;99.90;;;;;;4953884;28;20035;-67
2022/10/18 09:17:52;;;;;;;16.95;2.53;;;16.50;99.90;;;;;;4917836;28;20546;-68
2022/10/18 09:20:22;;;;;;;17.90;2.88;;;17.20;99.90;;;;;;4961579;28;20090;-67
2022/10/18 09:22:55;;;;;;;11.98;2.70;;;16.90;99.90;;;;;;4950647;28;20113;-68
2022/10/18 09:25:21;;;;;;;15.02;2.70;;;16.80;99.90;;;;;;4951596;28;20042;-67
2022/10/18 09:28:05;;;;;;;21.02;2.92;;;17.30;99.90;;;;;;4954559;28;20045;-67
2022/10/18 09:30:50;;;;;;;19.88;3.80;;;16.90;99.90;;;;;;4952955;28;20412;-67
2022/10/18 09:33:19;;;;;;;13.70;2.72;;;16.70;99.90;;;;;;4953423;28;20042;-68
2022/10/18 09:36:01;;;;;;;23.92;2.85;;;16.80;99.90;;;;;;4947958;28;20500;-68
2022/10/18 09:38:31;;;;;;;18.10;2.92;;;17.30;99.90;;;;;;4953134;28;20047;-68
2022/10/18 09:41:05;;;;;;;19.10;3.22;;;16.80;99.90;;;;;;4962650;28;20061;-67
2022/10/18 09:44:10;;;;;;;23.38;3.33;;;17.30;99.90;;;;;;4945262;28;20082;-67
2022/10/18 09:46:40;;;;;;;14.80;2.50;;;16.80;99.90;;;;;;4952985;28;20122;-67
2022/10/18 09:49:10;;;;;;;14.45;2.67;;;16.90;99.90;;;;;;4934684;28;20050;-68
2022/10/18 09:51:40;;;;;;;24.15;3.13;;;17.20;99.90;;;;;;4947077;28;21276;-67
2022/10/18 09:54:28;;;;;;;16.45;3.05;;;17.00;99.90;;;;;;4945394;28;20050;-68
2022/10/18 09:57:05;;;;;;;12.93;2.45;;;17.30;99.90;;;;;;4951782;28;20038;-68
2022/10/18 09:59:35;;;;;;;23.10;3.25;;;17.30;99.90;;;;;;4952905;28;20444;-67
2022/10/18 10:02:01;;;;;;;20.17;3.42;;;16.80;99.90;;;;;;4951998;28;20626;-67
2022/10/18 10:04:27;;;;;;;15.63;2.78;;;16.90;99.90;;;;;;4949973;28;20042;-67
2022/10/18 10:06:55;;;;;;;17.30;2.85;;;16.80;99.90;;;;;;4951945;28;20169;-68
2022/10/18 10:09:30;;;;;;;25.75;3.03;;;17.30;99.90;;;;;;4953300;28;20039;-67
2022/10/18 10:11:56;;;;;;;14.50;2.25;;;17.20;99.90;;;;;;4953522;28;20047;-67
2022/10/18 10:14:29;;;;;;;14.43;2.83;;;16.70;99.90;;;;;;4951109;28;20146;-68
2022/10/18 10:17:01;;;;;;;17.88;2.47;;;16.90;99.90;;;;;;4943148;28;20053;-67
2022/10/18 10:19:26;;;;;;;17.55;3.10;;;17.10;99.90;;;;;;4950269;28;20051;-72
2022/10/18 10:22:00;;;;;;;13.20;2.95;;;16.80;99.90;;;;;;4957406;28;20074;-72
2022/10/18 10:24:44;;;;;;;23.08;3.80;;;17.20;99.90;;;;;;4956160;28;20039;-72
2022/10/18 10:27:20;;;;;;;11.15;2.47;;;16.90;99.90;;;;;;4950807;28;20039;-67
2022/10/18 10:29:52;;;;;;;16.52;2.80;;;17.20;99.90;;;;;;4940868;28;20042;-67
2022/10/18 10:32:20;;;;;;;14.90;2.88;;;17.30;99.90;;;;;;4954300;28;20047;-68
2022/10/18 10:34:45;;;;;;;16.65;2.97;;;17.30;99.90;;;;;;4954887;28;20046;-66
2022/10/18 10:37:29;;;;;;;14.38;2.75;;;17.10;99.90;;;;;;4956311;28;20125;-67
2022/10/18 10:40:12;;;;;;;8.77;1.77;;;17.30;99.90;;;;;;4955662;28;20039;-66
2022/10/18 10:42:50;;;;;;;18.08;3.30;;;17.20;99.90;;;;;;4953481;28;20039;-67
2022/10/18 10:45:15;;;;;;;14.02;2.78;;;17.10;99.90;;;;;;4951908;28;20388;-67
2022/10/18 10:47:41;;;;;;;15.45;2.33;;;17.10;99.90;;;;;;4952605;28;20113;-67
2022/10/18 10:50:12;;;;;;;18.13;2.72;;;17.00;99.90;;;;;;4953529;28;20444;-67
2022/10/18 10:52:39;;;;;;;19.63;3.95;;;17.00;99.90;;;;;;4971765;28;20058;-67
2022/10/18 10:55:15;;;;;;;21.27;2.53;;;17.00;99.90;;;;;;4955879;28;20042;-67
2022/10/18 10:57:43;;;;;;;18.10;2.67;;;17.00;99.90;;;;;;4955296;28;20150;-67
2022/10/18 11:00:35;;;;;;;25.10;3.08;;;17.40;99.90;;;;;;4956867;28;20457;-67
2022/10/18 11:03:11;;;;;;;13.32;3.00;;;17.40;99.90;;;;;;4954762;28;20043;-67
2022/10/18 11:05:43;;;;;;;16.02;2.40;;;17.10;99.90;;;;;;4953090;28;20082;-67
2022/10/18 11:08:11;;;;;;;14.80;3.17;;;17.00;99.90;;;;;;4954469;28;20219;-67
2022/10/18 11:11:08;;;;;;;11.60;2.80;;;17.10;99.90;;;;;;4954551;28;20043;-66
2022/10/18 11:13:48;;;;;;;;;;;17.00;99.90;;;;;;4958124;28;20485;-66
2022/10/18 11:16:37;;;;;;;12.27;2.42;;;17.30;99.90;;;;;;4952247;28;19921;-68
2022/10/18 11:19:20;;;;;;;12.45;3.05;;;17.20;99.90;;;;;;4954620;28;20138;-67
2022/10/18 11:21:46;;;;;;;9.90;2.70;;;17.10;99.90;;;;;;4970550;28;20043;-67
2022/10/18 11:24:15;;;;;;;12.73;2.20;;;17.10;99.90;;;;;;4954655;28;20154;-66
2022/10/18 11:27:13;;;;;;;16.27;2.30;;;17.20;99.90;;;;;;4951810;28;20066;-66
2022/10/18 11:29:47;;;;;;;17.33;3.45;;;17.10;99.90;;;;;;4946822;28;20417;-66
2022/10/18 11:32:22;;;;;;;16.20;3.28;;;16.90;99.90;;;;;;4971354;28;20049;-66
2022/10/18 11:34:50;;;;;;;12.23;2.78;;;17.20;99.90;;;;;;4949092;28;20043;-66
2022/10/18 11:37:44;;;;;;;16.08;2.63;;;17.20;99.90;;;;;;4951658;28;20122;-66
2022/10/18 11:40:41;;;;;;;20.15;2.88;;;17.00;99.90;;;;;;4953402;28;20050;-65
2022/10/18 11:43:28;;;;;;;20.27;2.70;;;16.90;99.90;;;;;;4951616;28;20046;-66
2022/10/18 11:46:28;;;;;;;17.20;2.70;;;16.70;99.90;;;;;;4953596;28;20533;-66
2022/10/18 11:49:18;;;;;;;13.52;2.63;;;16.80;99.90;;;;;;4954494;28;20535;-66
2022/10/18 11:51:58;;;;;;;12.13;2.75;;;16.90;99.90;;;;;;4954475;28;20039;-66
2022/10/18 11:54:35;;;;;;;18.48;2.47;;;16.80;99.90;;;;;;4953748;28;20065;-66
2022/10/18 11:57:06;;;;;;;9.60;2.08;;;16.90;99.90;;;;;;4954959;28;20089;-65
2022/10/18 11:59:37;;;;;;;13.68;2.58;;;16.80;99.90;;;;;;4935843;28;20082;-66
2022/10/18 12:02:11;;;;;;;18.58;2.40;;;16.60;99.90;;;;;;4951873;28;20580;-66
2022/10/18 12:04:46;;;;;;;18.90;2.97;;;16.60;99.90;;;;;;4949865;28;20070;-65
2022/10/18 12:07:15;;;;;;;13.50;2.90;;;16.70;99.90;;;;;;4972953;28;20062;-65
2022/10/18 12:09:44;;;;;;;13.52;2.53;;;16.90;99.90;;;;;;4955710;28;20485;-66
2022/10/18 12:12:21;;;;;;;12.90;2.45;;;16.90;99.90;;;;;;4955969;28;20646;-65
2022/10/18 12:14:53;;;;;;;12.63;2.35;;;16.70;99.90;;;;;;4955870;28;20046;-65
2022/10/18 12:17:26;;;;;;;16.40;2.90;;;16.70;99.90;;;;;;4939009;28;20062;-65
2022/10/18 12:19:55;;;;;;;14.70;2.28;;;16.90;99.90;;;;;;4970151;28;20089;-66
2022/10/18 12:22:23;;;;;;;16.38;2.50;;;16.70;99.90;;;;;;4957824;28;20042;-66
2022/10/18 12:24:49;;;;;;;18.60;3.00;;;16.90;99.90;;;;;;4936584;28;20488;-66
2022/10/18 12:27:15;;;;;;;20.50;2.50;;;16.80;99.90;;;;;;4973165;28;20035;-66
2022/10/18 12:30:02;;;;;;;12.05;2.10;;;16.90;99.90;;;;;;4937543;28;20489;-66
2022/10/18 12:32:33;;;;;;;10.73;2.10;;;16.70;99.90;;;;;;4951942;28;20060;-66
2022/10/18 12:35:09;;;;;;;13.15;2.17;;;16.80;99.90;;;;;;4938941;28;20423;-65
2022/10/18 12:38:07;;;;;;;12.38;2.33;;;16.70;99.90;;;;;;4947798;29;20046;-65
2022/10/18 12:40:41;;;;;;;14.70;2.95;;;16.70;99.90;;;;;;4970837;28;20039;-66
2022/10/18 12:43:15;;;;;;;15.43;2.38;;;16.90;99.90;;;;;;4952695;28;20465;-66
2022/10/18 12:45:56;;;;;;;14.70;2.45;;;16.60;99.90;;;;;;4948917;28;20043;-66
2022/10/18 12:48:37;;;;;;;16.85;3.40;;;16.80;99.90;;;;;;4950978;29;20058;-66
2022/10/18 12:51:16;;;;;;;12.63;2.85;;;17.00;99.90;;;;;;4953020;28;20050;-65
2022/10/18 12:53:45;;;;;;;20.92;3.20;;;17.10;99.90;;;;;;4950195;28;20039;-66